createdAt,value
2023-02-02T00:10:24.983Z,4.10
2023-02-02T00:22:25.395Z,4.69
2023-02-02T00:34:25.847Z,4.05
2023-02-02T00:46:26.326Z,3.69
2023-02-02T00:58:26.776Z,3.84
2023-02-02T01:10:27.256Z,4.20
2023-02-02T01:22:27.682Z,4.66
2023-02-02T01:34:28.123Z,4.27
2023-02-02T01:46:28.587Z,2.63
2023-02-02T01:58:29.044Z,1.62
2023-02-02T02:10:29.494Z,2.51
2023-02-02T02:22:29.931Z,2.32
2023-02-02T02:34:30.401Z,1.85
2023-02-02T02:46:30.830Z,0.94
2023-02-02T02:58:31.307Z,0.36
2023-02-02T03:10:31.712Z,0.00
2023-02-02T03:22:32.165Z,0.01
2023-02-02T03:34:32.711Z,1.37
2023-02-02T03:46:33.118Z,1.32
2023-02-02T03:58:33.525Z,0.50
2023-02-02T04:10:33.991Z,2.47
2023-02-02T04:22:34.413Z,0.66
2023-02-02T04:34:34.926Z,0.00
2023-02-02T04:46:35.355Z,0.00
2023-02-02T04:58:35.772Z,0.27
2023-02-02T05:10:36.232Z,0.63
2023-02-02T05:22:36.710Z,1.42
2023-02-02T05:34:37.190Z,3.91
2023-02-02T05:46:37.669Z,5.57
2023-02-02T05:58:38.130Z,6.28
2023-02-02T06:10:38.522Z,3.85
2023-02-02T06:22:38.964Z,0.71
2023-02-02T06:34:39.394Z,4.32
2023-02-02T06:46:39.881Z,5.42
2023-02-02T06:58:40.364Z,3.91
2023-02-02T07:11:13.600Z,2.73
2023-02-02T07:22:41.215Z,1.02
2023-02-02T07:34:41.672Z,0.96
2023-02-02T07:46:42.214Z,0.34
2023-02-02T07:58:42.541Z,0.86
2023-02-02T08:10:43.009Z,0.24
2023-02-02T08:22:43.469Z,0.97
2023-02-02T08:34:43.950Z,0.35
2023-02-02T08:46:44.375Z,1.17
2023-02-02T08:58:44.820Z,1.23
2023-02-02T09:10:45.353Z,1.14
2023-02-02T09:22:45.729Z,0.16
2023-02-02T09:34:46.203Z,0.08
2023-02-02T09:46:46.624Z,0.62
2023-02-02T09:58:47.107Z,0.39
2023-02-02T10:10:47.555Z,0.33
2023-02-02T10:22:48.003Z,1.11
2023-02-02T10:34:48.474Z,1.68
2023-02-02T10:46:48.930Z,0.48
2023-02-02T10:58:49.356Z,0.78
2023-02-02T11:10:49.837Z,1.07
2023-02-02T11:22:50.255Z,1.34
2023-02-02T11:34:50.695Z,0.62
2023-02-02T11:46:51.247Z,0.93
2023-02-02T11:58:51.642Z,1.55
2023-02-02T12:10:52.093Z,1.18
2023-02-02T12:22:52.495Z,1.12
2023-02-02T12:34:53.129Z,0.69
2023-02-02T12:46:53.471Z,1.44
2023-02-02T12:58:53.882Z,1.27
2023-02-02T13:10:54.348Z,1.75
2023-02-02T13:22:54.783Z,2.03
2023-02-02T13:34:55.216Z,2.07
2023-02-02T13:46:55.697Z,2.08
2023-02-02T13:58:56.150Z,2.89
2023-02-02T14:10:56.600Z,3.13
2023-02-02T14:22:57.080Z,3.36
2023-02-02T14:34:57.461Z,1.93
2023-02-02T14:46:57.964Z,0.42
2023-02-02T14:58:58.420Z,1.05
2023-02-02T15:10:58.853Z,0.42
2023-02-02T15:22:59.266Z,1.22
2023-02-02T15:34:59.751Z,1.00
2023-02-02T15:47:00.194Z,2.41
2023-02-02T15:59:00.695Z,2.33
2023-02-02T16:11:01.074Z,2.57
2023-02-02T16:23:01.565Z,2.14
2023-02-02T16:35:02.041Z,2.76
2023-02-02T16:47:02.540Z,2.86
2023-02-02T16:59:02.972Z,1.63
2023-02-02T17:11:03.366Z,1.22
2023-02-02T17:23:03.818Z,0.24
2023-02-02T17:35:04.288Z,0.01
2023-02-02T17:47:04.720Z,0.13
2023-02-02T17:59:05.187Z,1.30
2023-02-02T18:11:05.628Z,0.11
2023-02-02T18:23:06.051Z,0.34
2023-02-02T18:35:06.518Z,0.48
2023-02-02T18:47:06.973Z,0.05
2023-02-02T18:59:07.413Z,0.28
2023-02-02T19:11:07.858Z,0.17
2023-02-02T19:23:08.336Z,0.26
2023-02-02T19:35:08.774Z,0.28
2023-02-02T19:47:09.469Z,0.10
2023-02-02T19:59:09.695Z,0.11
2023-02-02T20:11:10.165Z,0.07
2023-02-02T20:23:10.600Z,0.49
2023-02-02T20:35:11.117Z,0.18
2023-02-02T20:47:11.506Z,0.30
2023-02-02T20:59:11.963Z,0.20
2023-02-02T21:11:12.375Z,0.64
2023-02-02T21:23:12.841Z,0.27
2023-02-02T21:35:14.294Z,0.68
2023-02-02T21:47:13.726Z,0.25
2023-02-02T21:59:14.189Z,0.20
2023-02-02T22:11:14.662Z,0.00
2023-02-02T22:23:15.079Z,0.15
2023-02-02T22:35:15.554Z,0.00
2023-02-02T22:47:16.025Z,0.15
2023-02-02T22:59:16.444Z,0.13
2023-02-02T23:11:16.909Z,0.52
2023-02-02T23:23:17.333Z,0.21
2023-02-02T23:35:17.819Z,0.03
2023-02-02T23:47:18.242Z,0.22
2023-02-02T23:59:18.728Z,0.06
